createdAt,value
2023-03-03T00:01:37.279Z,83.37
2023-03-03T00:04:04.685Z,82.92
2023-03-03T00:06:32.085Z,82.42
2023-03-03T00:08:59.431Z,82.69
2023-03-03T00:11:26.866Z,83.53
2023-03-03T00:13:56.785Z,83.85
2023-03-03T00:16:38.733Z,83.82
2023-03-03T00:19:19.328Z,83.82
2023-03-03T00:21:48.919Z,84.61
2023-03-03T00:24:25.287Z,85.32
2023-03-03T00:27:00.144Z,85.68
2023-03-03T00:29:27.518Z,85.75
2023-03-03T00:31:55.408Z,85.46
2023-03-03T00:34:28.264Z,85.92
2023-03-03T00:36:57.789Z,85.33
2023-03-03T00:39:36.251Z,85.09
2023-03-03T00:42:13.937Z,85.07
2023-03-03T00:44:48.320Z,84.54
2023-03-03T00:47:30.707Z,84.12
2023-03-03T00:50:07.757Z,83.87
2023-03-03T00:52:40.750Z,83.99
2023-03-03T00:55:08.820Z,84.43
2023-03-03T00:57:36.203Z,83.95
2023-03-03T01:00:05.817Z,84.29
2023-03-03T01:02:33.802Z,85.63
2023-03-03T01:05:01.860Z,85.48
2023-03-03T01:07:29.249Z,85.25
2023-03-03T01:09:56.762Z,86.08
2023-03-03T01:12:24.428Z,85.92
2023-03-03T01:14:53.150Z,85.82
2023-03-03T01:17:20.641Z,84.97
2023-03-03T01:19:48.050Z,84.60
2023-03-03T01:22:15.487Z,84.35
2023-03-03T01:24:42.913Z,85.44
2023-03-03T01:27:11.435Z,84.83
2023-03-03T01:29:38.959Z,84.56
2023-03-03T01:32:06.460Z,84.45
2023-03-03T01:34:34.132Z,84.22
2023-03-03T01:37:01.605Z,84.64
2023-03-03T01:39:29.007Z,85.38
2023-03-03T01:41:56.572Z,85.39
2023-03-03T01:44:23.957Z,85.25
2023-03-03T01:47:00.540Z,85.50
2023-03-03T01:49:36.588Z,85.37
2023-03-03T01:52:13.063Z,85.59
2023-03-03T01:54:50.566Z,84.69
2023-03-03T01:57:26.917Z,84.97
2023-03-03T01:59:57.662Z,85.47
2023-03-03T02:02:27.983Z,85.63
2023-03-03T02:04:55.929Z,85.82
2023-03-03T02:07:27.612Z,85.45
2023-03-03T02:10:14.455Z,85.93
2023-03-03T02:12:55.504Z,85.50
2023-03-03T02:15:32.240Z,85.91
2023-03-03T02:18:20.968Z,85.58
2023-03-03T02:20:54.320Z,85.61
2023-03-03T02:23:44.303Z,85.40
2023-03-03T02:26:22.762Z,85.24
2023-03-03T02:28:54.539Z,85.68
2023-03-03T02:31:25.133Z,85.52
2023-03-03T02:33:54.020Z,85.87
2023-03-03T02:36:34.147Z,86.04
2023-03-03T02:39:10.641Z,85.40
2023-03-03T02:41:48.651Z,85.55
2023-03-03T02:44:19.627Z,85.95
2023-03-03T02:46:49.156Z,85.87
2023-03-03T02:49:21.161Z,86.46
2023-03-03T02:51:48.990Z,86.50
2023-03-03T02:54:18.430Z,86.11
2023-03-03T02:56:46.833Z,85.88
2023-03-03T02:59:14.379Z,85.65
2023-03-03T03:01:47.087Z,86.32
2023-03-03T03:04:24.977Z,86.95
2023-03-03T03:06:54.322Z,86.43
2023-03-03T03:09:24.973Z,86.17
2023-03-03T03:11:54.211Z,86.52
2023-03-03T03:14:25.227Z,86.92
2023-03-03T03:16:54.786Z,86.44
2023-03-03T03:19:22.321Z,87.57
2023-03-03T03:21:50.053Z,88.39
2023-03-03T03:24:18.272Z,87.83
2023-03-03T03:26:51.634Z,87.16
2023-03-03T03:29:19.167Z,86.76
2023-03-03T03:31:46.561Z,86.64
2023-03-03T03:34:14.027Z,87.80
2023-03-03T03:36:41.524Z,88.06
2023-03-03T03:39:09.169Z,88.03
2023-03-03T03:41:41.210Z,88.49
2023-03-03T03:44:08.582Z,88.18
2023-03-03T03:46:36.039Z,87.92
2023-03-03T03:49:03.605Z,87.66
2023-03-03T03:51:31.620Z,87.75
2023-03-03T03:53:59.513Z,87.44
2023-03-03T03:56:27.110Z,87.11
2023-03-03T03:58:57.438Z,87.12
2023-03-03T04:01:25.512Z,86.97
2023-03-03T04:03:53.506Z,87.91
2023-03-03T04:06:24.357Z,88.64
2023-03-03T04:08:52.981Z,88.73
2023-03-03T04:11:22.823Z,88.18
2023-03-03T04:13:50.262Z,88.44
2023-03-03T04:16:18.228Z,88.06
2023-03-03T04:18:46.879Z,88.82
2023-03-03T04:21:16.470Z,88.22
2023-03-03T04:23:45.505Z,88.20
2023-03-03T04:26:12.956Z,88.30
2023-03-03T04:28:41.551Z,87.81
2023-03-03T04:31:09.068Z,87.76
2023-03-03T04:33:36.518Z,87.83
2023-03-03T04:36:05.896Z,87.87
2023-03-03T04:38:33.364Z,88.41
2023-03-03T04:41:01.019Z,88.04
2023-03-03T04:43:32.780Z,88.24
2023-03-03T04:46:01.437Z,87.83
2023-03-03T04:48:29.712Z,87.33
2023-03-03T04:50:57.125Z,87.50
2023-03-03T04:53:24.794Z,87.65
2023-03-03T04:55:53.542Z,87.81
2023-03-03T04:58:22.083Z,87.64
2023-03-03T05:00:55.530Z,88.12
2023-03-03T05:03:23.871Z,89.44
2023-03-03T05:05:51.293Z,88.55
2023-03-03T05:08:18.998Z,88.78
2023-03-03T05:10:46.339Z,88.76
2023-03-03T05:13:38.881Z,90.00
2023-03-03T05:16:06.643Z,89.90
2023-03-03T05:18:34.031Z,89.55
2023-03-03T05:21:01.507Z,89.28
2023-03-03T05:23:29.193Z,90.10
2023-03-03T05:25:56.932Z,90.23
2023-03-03T05:28:24.338Z,89.41
2023-03-03T05:30:51.765Z,88.94
2023-03-03T05:33:19.416Z,88.35
2023-03-03T05:35:47.055Z,88.01
2023-03-03T05:38:14.442Z,89.03
2023-03-03T05:40:41.849Z,88.56
2023-03-03T05:43:09.350Z,89.38
2023-03-03T05:45:36.740Z,89.43
2023-03-03T05:48:04.945Z,89.19
2023-03-03T05:50:32.881Z,88.93
2023-03-03T05:53:00.303Z,89.03
2023-03-03T05:55:27.631Z,88.84
2023-03-03T05:57:55.882Z,89.54
2023-03-03T06:00:23.440Z,89.90
2023-03-03T06:02:50.936Z,90.29
2023-03-03T06:05:18.504Z,89.74
2023-03-03T06:07:45.851Z,89.76
2023-03-03T06:10:13.302Z,89.35
2023-03-03T06:12:42.568Z,89.28
2023-03-03T06:15:10.810Z,90.25
2023-03-03T06:17:38.443Z,90.13
2023-03-03T06:20:06.884Z,90.47
2023-03-03T06:22:34.279Z,90.64
2023-03-03T06:25:01.605Z,90.29
2023-03-03T06:27:29.032Z,90.29
2023-03-03T06:29:56.421Z,90.61
2023-03-03T06:32:23.750Z,90.11
2023-03-03T06:34:51.191Z,90.18
2023-03-03T06:37:18.630Z,89.46
2023-03-03T06:39:45.933Z,89.75
2023-03-03T06:42:13.457Z,89.03
2023-03-03T06:44:41.055Z,89.04
2023-03-03T06:47:08.465Z,88.67
2023-03-03T06:49:36.085Z,89.35
2023-03-03T06:52:12.478Z,88.84
2023-03-03T06:54:40.564Z,88.70
2023-03-03T06:57:17.925Z,82.22
2023-03-03T06:59:47.264Z,80.36
2023-03-03T07:02:17.385Z,81.17
2023-03-03T07:04:47.068Z,82.35
2023-03-03T07:07:20.933Z,83.12
2023-03-03T07:09:50.730Z,82.77
2023-03-03T07:12:22.634Z,83.42
2023-03-03T07:15:00.812Z,83.12
2023-03-03T07:17:28.227Z,82.28
2023-03-03T07:19:55.630Z,82.83
2023-03-03T07:22:27.759Z,82.52
2023-03-03T07:25:00.775Z,81.44
2023-03-03T07:27:30.609Z,81.40
2023-03-03T07:30:26.232Z,80.50
2023-03-03T07:32:56.738Z,79.16
2023-03-03T07:35:40.331Z,78.42
2023-03-03T07:38:24.497Z,75.59
2023-03-03T07:40:57.321Z,71.13
2023-03-03T07:43:36.226Z,67.10
2023-03-03T07:46:27.959Z,64.63
2023-03-03T07:48:57.675Z,64.15
2023-03-03T07:51:29.182Z,61.47
2023-03-03T07:54:26.141Z,60.42
2023-03-03T07:56:53.513Z,58.79
2023-03-03T07:59:24.543Z,59.31
2023-03-03T08:01:56.238Z,58.81
2023-03-03T08:04:37.736Z,58.68
2023-03-03T08:07:16.580Z,60.89
2023-03-03T08:09:49.440Z,61.42
2023-03-03T08:12:19.467Z,61.85
2023-03-03T08:14:47.221Z,62.04
2023-03-03T08:17:22.102Z,63.52
2023-03-03T08:19:51.072Z,64.17
2023-03-03T08:22:39.911Z,64.05
2023-03-03T08:25:07.596Z,63.55
2023-03-03T08:27:34.959Z,64.74
2023-03-03T08:30:02.289Z,64.26
2023-03-03T08:32:29.644Z,64.46
2023-03-03T08:34:56.971Z,64.65
2023-03-03T08:37:24.306Z,65.13
2023-03-03T08:39:51.603Z,65.88
2023-03-03T08:42:18.957Z,66.43
2023-03-03T08:44:46.249Z,66.23
2023-03-03T08:47:13.535Z,65.38
2023-03-03T08:49:40.819Z,63.71
2023-03-03T08:52:08.175Z,63.75
2023-03-03T08:54:35.575Z,64.00
2023-03-03T08:57:04.033Z,63.65
2023-03-03T08:59:31.356Z,63.46
2023-03-03T09:02:17.896Z,64.21
2023-03-03T09:04:45.269Z,63.07
2023-03-03T09:07:12.663Z,62.16
2023-03-03T09:09:40.197Z,61.41
2023-03-03T09:12:17.751Z,60.71
2023-03-03T09:14:45.359Z,59.60
2023-03-03T09:17:35.482Z,60.73
2023-03-03T09:20:39.415Z,61.25
2023-03-03T09:23:29.560Z,59.89
2023-03-03T09:25:59.111Z,60.27
2023-03-03T09:28:29.087Z,60.06
2023-03-03T09:31:06.449Z,60.48
2023-03-03T09:33:43.893Z,59.18
2023-03-03T09:36:25.799Z,60.78
2023-03-03T09:38:54.706Z,60.04
2023-03-03T09:41:56.022Z,59.57
2023-03-03T09:44:32.492Z,60.40
2023-03-03T09:47:36.711Z,60.74
2023-03-03T09:50:15.936Z,61.72
2023-03-03T09:53:10.934Z,61.75
2023-03-03T09:56:07.379Z,60.85
2023-03-03T09:58:52.930Z,60.09
2023-03-03T10:01:41.766Z,60.13
2023-03-03T10:04:19.099Z,60.81
2023-03-03T10:07:03.039Z,61.49
2023-03-03T10:09:49.703Z,60.40
2023-03-03T10:12:31.595Z,60.29
2023-03-03T10:15:13.991Z,59.77
2023-03-03T10:18:07.058Z,60.71
2023-03-03T10:21:02.114Z,60.62
2023-03-03T10:23:56.905Z,60.55
2023-03-03T10:27:09.817Z,60.96
2023-03-03T10:29:59.317Z,61.61
2023-03-03T10:32:40.211Z,62.11
2023-03-03T10:35:13.409Z,61.16
2023-03-03T10:38:02.685Z,61.54
2023-03-03T10:40:37.564Z,62.51
2023-03-03T10:43:26.106Z,62.29
2023-03-03T10:46:36.224Z,61.66
2023-03-03T10:49:16.272Z,61.46
2023-03-03T10:52:02.879Z,60.63
2023-03-03T10:54:57.784Z,58.44
2023-03-03T10:57:46.303Z,59.26
2023-03-03T11:00:31.859Z,60.69
2023-03-03T11:03:33.132Z,59.93
2023-03-03T11:06:04.989Z,60.16
2023-03-03T11:08:43.377Z,60.96
2023-03-03T11:11:31.883Z,61.55
2023-03-03T11:14:12.253Z,60.12
2023-03-03T11:16:39.580Z,60.37
2023-03-03T11:19:28.715Z,60.18
2023-03-03T11:22:02.029Z,60.27
2023-03-03T11:24:51.502Z,58.28
2023-03-03T11:27:38.561Z,58.08
2023-03-03T11:30:11.649Z,59.20
2023-03-03T11:32:50.388Z,58.17
2023-03-03T11:35:27.527Z,58.80
2023-03-03T11:38:24.280Z,59.23
2023-03-03T11:40:57.211Z,56.92
2023-03-03T11:43:37.045Z,56.78
2023-03-03T11:46:30.502Z,58.08
2023-03-03T11:49:09.150Z,57.63
2023-03-03T11:51:59.074Z,56.25
2023-03-03T11:54:34.907Z,56.59
2023-03-03T11:57:20.760Z,55.99
2023-03-03T12:00:24.168Z,55.91
2023-03-03T12:03:41.971Z,56.27
2023-03-03T12:06:12.963Z,57.05
2023-03-03T12:09:02.159Z,56.50
2023-03-03T12:11:54.333Z,55.88
2023-03-03T12:14:47.269Z,54.88
2023-03-03T12:17:35.536Z,55.03
2023-03-03T12:20:21.159Z,54.81
2023-03-03T12:23:05.780Z,54.46
2023-03-03T12:25:51.952Z,54.70
2023-03-03T12:28:28.501Z,55.50
2023-03-03T12:30:58.716Z,55.29
2023-03-03T12:33:54.086Z,55.54
2023-03-03T12:36:46.129Z,55.62
2023-03-03T12:39:33.719Z,55.42
2023-03-03T12:42:17.148Z,55.30
2023-03-03T12:44:50.584Z,55.52
2023-03-03T12:47:23.204Z,56.72
2023-03-03T12:50:09.278Z,55.96
2023-03-03T12:52:44.700Z,55.34
2023-03-03T12:55:30.157Z,55.65
2023-03-03T12:58:20.359Z,54.60
2023-03-03T13:00:56.226Z,54.87
2023-03-03T13:03:53.229Z,55.18
2023-03-03T13:06:33.496Z,53.61
2023-03-03T13:09:35.111Z,53.61
2023-03-03T13:12:27.044Z,52.05
2023-03-03T13:15:00.744Z,51.54
2023-03-03T13:17:38.576Z,51.97
2023-03-03T13:20:24.842Z,52.89
2023-03-03T13:23:20.901Z,52.72
2023-03-03T13:25:54.823Z,51.95
2023-03-03T13:28:30.813Z,52.86
2023-03-03T13:31:06.681Z,53.69
2023-03-03T13:33:37.293Z,53.49
2023-03-03T13:36:09.288Z,52.85
2023-03-03T13:38:46.990Z,51.98
2023-03-03T13:41:25.949Z,52.31
2023-03-03T13:44:23.541Z,51.93
2023-03-03T13:47:38.028Z,51.13
2023-03-03T13:50:16.411Z,51.59
2023-03-03T13:53:08.611Z,51.61
2023-03-03T13:55:42.913Z,50.67
2023-03-03T13:58:34.551Z,51.10
2023-03-03T14:01:24.248Z,51.40
2023-03-03T14:04:39.635Z,52.14
2023-03-03T14:07:21.936Z,52.53
2023-03-03T14:10:07.507Z,51.11
2023-03-03T14:12:53.207Z,51.44
2023-03-03T14:15:54.222Z,50.90
2023-03-03T14:18:31.533Z,49.79
2023-03-03T14:21:27.175Z,49.28
2023-03-03T14:24:08.394Z,49.17
2023-03-03T14:26:55.727Z,49.15
2023-03-03T14:29:27.772Z,48.79
2023-03-03T14:31:57.050Z,48.68
2023-03-03T14:34:24.374Z,49.27
2023-03-03T14:36:57.817Z,48.80
2023-03-03T14:39:39.895Z,49.44
2023-03-03T14:42:14.739Z,48.63
2023-03-03T14:44:45.245Z,49.92
2023-03-03T14:47:24.959Z,49.92
2023-03-03T14:50:00.740Z,49.37
2023-03-03T14:52:30.824Z,49.73
2023-03-03T14:55:00.936Z,50.30
2023-03-03T14:57:46.367Z,50.66
2023-03-03T15:00:27.553Z,51.07
2023-03-03T15:03:21.593Z,50.88
2023-03-03T15:05:56.211Z,50.55
2023-03-03T15:08:32.753Z,51.08
2023-03-03T15:11:14.185Z,51.69
2023-03-03T15:13:41.695Z,51.81
2023-03-03T15:16:31.828Z,52.12
2023-03-03T15:19:37.991Z,52.17
2023-03-03T15:22:23.366Z,51.51
2023-03-03T15:25:04.053Z,51.55
2023-03-03T15:27:49.360Z,51.78
2023-03-03T15:30:37.456Z,52.38
2023-03-03T15:33:33.722Z,52.71
2023-03-03T15:36:39.247Z,53.70
2023-03-03T15:39:21.557Z,52.97
2023-03-03T15:42:04.953Z,53.34
2023-03-03T15:44:57.969Z,53.56
2023-03-03T15:47:43.797Z,54.24
2023-03-03T15:50:35.487Z,54.96
2023-03-03T15:53:05.612Z,54.61
2023-03-03T15:55:47.193Z,54.38
2023-03-03T15:58:37.532Z,54.50
2023-03-03T16:01:26.776Z,54.81
2023-03-03T16:04:18.003Z,55.61
2023-03-03T16:07:00.513Z,55.31
2023-03-03T16:09:47.469Z,56.28
2023-03-03T16:12:22.864Z,56.47
2023-03-03T16:15:17.614Z,56.53
2023-03-03T16:17:47.964Z,57.06
2023-03-03T16:20:28.318Z,56.83
2023-03-03T16:22:58.973Z,56.70
2023-03-03T16:25:34.098Z,56.49
2023-03-03T16:28:08.592Z,56.61
2023-03-03T16:30:56.090Z,56.72
2023-03-03T16:33:54.983Z,57.49
2023-03-03T16:36:32.285Z,57.34
2023-03-03T16:39:08.324Z,57.68
2023-03-03T16:41:45.529Z,57.67
2023-03-03T16:44:55.147Z,57.82
2023-03-03T16:47:44.155Z,58.17
2023-03-03T16:50:23.035Z,58.37
2023-03-03T16:53:03.781Z,58.68
2023-03-03T16:55:37.883Z,59.04
2023-03-03T16:58:39.302Z,59.79
2023-03-03T17:01:27.345Z,59.85
2023-03-03T17:04:06.937Z,59.82
2023-03-03T17:06:41.334Z,60.00
2023-03-03T17:09:30.152Z,59.89
2023-03-03T17:12:08.381Z,60.42
2023-03-03T17:14:54.523Z,60.75
2023-03-03T17:17:33.798Z,60.65
2023-03-03T17:20:20.913Z,60.66
2023-03-03T17:22:57.373Z,61.20
2023-03-03T17:25:37.223Z,61.74
2023-03-03T17:28:30.501Z,63.15
2023-03-03T17:31:12.966Z,61.68
2023-03-03T17:33:53.914Z,60.95
2023-03-03T17:36:32.755Z,60.79
2023-03-03T17:39:27.747Z,61.25
2023-03-03T17:42:29.287Z,61.30
2023-03-03T17:45:10.466Z,61.61
2023-03-03T17:48:00.563Z,62.47
2023-03-03T17:51:01.422Z,62.48
2023-03-03T17:53:53.153Z,62.67
2023-03-03T17:56:52.840Z,62.98
2023-03-03T17:59:49.067Z,62.70
2023-03-03T18:02:30.377Z,63.60
2023-03-03T18:05:42.796Z,64.06
2023-03-03T18:08:22.898Z,63.86
2023-03-03T18:10:59.884Z,64.59
2023-03-03T18:13:50.478Z,65.10
2023-03-03T18:16:20.706Z,65.02
2023-03-03T18:19:19.244Z,65.56
2023-03-03T18:22:05.597Z,66.05
2023-03-03T18:24:54.244Z,66.11
2023-03-03T18:27:24.672Z,66.38
2023-03-03T18:30:20.568Z,66.73
2023-03-03T18:33:03.371Z,67.18
2023-03-03T18:35:40.054Z,67.45
2023-03-03T18:38:16.473Z,67.95
2023-03-03T18:40:57.887Z,67.77
2023-03-03T18:43:43.578Z,67.29
2023-03-03T18:46:30.906Z,67.36
2023-03-03T18:49:01.259Z,67.66
2023-03-03T18:51:34.662Z,68.01
2023-03-03T18:54:26.297Z,68.61
2023-03-03T18:56:53.491Z,69.08
2023-03-03T18:59:36.153Z,68.72
2023-03-03T19:02:12.695Z,68.40
2023-03-03T19:04:55.678Z,68.57
2023-03-03T19:07:26.500Z,70.05
2023-03-03T19:09:58.260Z,69.62
2023-03-03T19:12:59.107Z,70.00
2023-03-03T19:15:36.206Z,70.81
2023-03-03T19:18:23.685Z,71.55
2023-03-03T19:21:19.252Z,71.97
2023-03-03T19:23:59.912Z,72.73
2023-03-03T19:26:30.330Z,72.93
2023-03-03T19:29:13.036Z,72.55
2023-03-03T19:31:57.780Z,72.87
2023-03-03T19:34:34.053Z,72.80
2023-03-03T19:38:00.640Z,72.83
2023-03-03T19:40:56.815Z,73.00
2023-03-03T19:43:48.964Z,73.88
2023-03-03T19:47:10.216Z,74.80
2023-03-03T19:49:58.492Z,74.57
2023-03-03T19:52:36.870Z,73.42
2023-03-03T19:55:19.344Z,74.25
2023-03-03T19:57:49.506Z,74.08
2023-03-03T20:00:41.323Z,73.90
2023-03-03T20:03:34.050Z,74.15
2023-03-03T20:06:29.274Z,74.27
2023-03-03T20:09:08.241Z,74.24
2023-03-03T20:11:48.101Z,74.31
2023-03-03T20:14:25.556Z,74.91
2023-03-03T20:16:58.336Z,76.11
2023-03-03T20:20:11.364Z,76.52
2023-03-03T20:22:47.681Z,76.59
2023-03-03T20:25:43.641Z,76.46
2023-03-03T20:28:56.247Z,76.66
2023-03-03T20:31:26.945Z,76.88
2023-03-03T20:34:13.316Z,76.88
2023-03-03T20:36:40.787Z,76.37
2023-03-03T20:39:17.181Z,76.11
2023-03-03T20:42:05.862Z,75.58
2023-03-03T20:44:51.971Z,75.41
2023-03-03T20:47:52.346Z,75.52
2023-03-03T20:50:44.226Z,75.60
2023-03-03T20:53:14.464Z,75.44
2023-03-03T20:55:47.739Z,75.26
2023-03-03T20:58:23.833Z,75.29
2023-03-03T21:01:08.546Z,75.98
2023-03-03T21:03:43.106Z,75.24
2023-03-03T21:06:17.879Z,74.98
2023-03-03T21:08:53.690Z,74.90
2023-03-03T21:11:40.743Z,74.65
2023-03-03T21:15:06.307Z,73.84
2023-03-03T21:17:33.983Z,73.16
2023-03-03T21:20:33.917Z,73.65
2023-03-03T21:23:02.628Z,73.62
2023-03-03T21:25:52.389Z,74.04
2023-03-03T21:28:31.829Z,73.50
2023-03-03T21:31:15.988Z,73.31
2023-03-03T21:33:45.310Z,72.66
2023-03-03T21:36:15.695Z,73.65
2023-03-03T21:38:45.165Z,74.33
2023-03-03T21:41:13.982Z,74.63
2023-03-03T21:43:50.732Z,74.81
2023-03-03T21:46:23.540Z,75.35
2023-03-03T21:48:52.056Z,75.81
2023-03-03T21:51:20.590Z,75.96
2023-03-03T21:53:48.001Z,77.02
2023-03-03T21:56:15.412Z,77.06
2023-03-03T21:58:43.346Z,76.34
2023-03-03T22:01:10.800Z,76.04
2023-03-03T22:03:39.826Z,74.97
2023-03-03T22:06:07.925Z,74.86
2023-03-03T22:08:35.407Z,74.76
2023-03-03T22:11:02.851Z,74.91
2023-03-03T22:13:30.329Z,74.74
2023-03-03T22:15:57.805Z,74.94
2023-03-03T22:18:25.214Z,75.06
2023-03-03T22:20:52.572Z,75.20
2023-03-03T22:23:20.049Z,75.18
2023-03-03T22:25:47.989Z,74.87
2023-03-03T22:28:15.447Z,74.59
2023-03-03T22:30:43.131Z,75.22
2023-03-03T22:33:10.860Z,76.10
2023-03-03T22:35:38.302Z,76.42
2023-03-03T22:38:06.083Z,76.92
2023-03-03T22:40:33.809Z,76.77
2023-03-03T22:43:01.276Z,77.91
2023-03-03T22:45:28.640Z,77.97
2023-03-03T22:47:56.036Z,78.11
2023-03-03T22:50:23.526Z,78.40
2023-03-03T22:52:51.040Z,77.79
2023-03-03T22:55:18.396Z,77.11
2023-03-03T22:57:45.715Z,76.83
2023-03-03T23:00:14.502Z,76.66
2023-03-03T23:02:42.346Z,76.12
2023-03-03T23:05:11.113Z,76.44
2023-03-03T23:07:40.998Z,76.80
2023-03-03T23:10:10.020Z,76.85
2023-03-03T23:12:37.448Z,77.30
2023-03-03T23:15:13.134Z,76.91
2023-03-03T23:17:44.715Z,77.08
2023-03-03T23:20:12.994Z,76.92
2023-03-03T23:22:40.852Z,77.68
2023-03-03T23:25:08.921Z,77.73
2023-03-03T23:27:36.547Z,78.16
2023-03-03T23:30:05.485Z,77.73
2023-03-03T23:32:32.977Z,77.69
2023-03-03T23:35:00.378Z,78.18
2023-03-03T23:37:27.978Z,78.16
2023-03-03T23:39:55.480Z,78.12
2023-03-03T23:42:22.949Z,77.97
2023-03-03T23:44:50.651Z,78.44
2023-03-03T23:47:17.971Z,78.70
2023-03-03T23:49:45.441Z,78.28
2023-03-03T23:52:12.783Z,77.94
2023-03-03T23:54:40.196Z,78.18
2023-03-03T23:57:08.142Z,77.29
2023-03-03T23:59:35.931Z,77.65
